Time;durP1;ratioP1;P1;durP2;ratioP2;P2;SDS_P1;SDS_P2;PMS_P1;PMS_P2;Temp;Humidity;BMP_temperature;BMP_pressure;BME280_temperature;BME280_humidity;BME280_pressure;Samples;Min_cycle;Max_cycle;Signal;HPM_P1;HPM_P2
2021/12/20 00:02:08;;;;;;;22.88;2.92;;;;;;;;;;5070854;28;20040;-83
2021/12/20 00:04:35;;;;;;;17.75;2.72;;;;;;;;;;5053844;28;20044;-76
2021/12/20 00:07:01;;;;;;;21.58;3.15;;;;;;;;;;5071138;28;20506;-76
2021/12/20 00:09:27;;;;;;;26.65;2.92;;;;;;;;;;5053672;28;20044;-76
2021/12/20 00:11:53;;;;;;;23.58;3.38;;;;;;;;;;5071004;28;20484;-76
2021/12/20 00:14:19;;;;;;;29.08;2.78;;;;;;;;;;5070469;28;20041;-76
2021/12/20 00:16:45;;;;;;;25.92;3.30;;;;;;;;;;5053851;28;20133;-76
2021/12/20 00:19:12;;;;;;;27.08;3.42;;;;;;;;;;5070794;28;20384;-76
2021/12/20 00:21:38;;;;;;;22.00;2.80;;;;;;;;;;5070068;28;20041;-76
2021/12/20 00:24:04;;;;;;;22.10;2.95;;;;;;;;;;5070399;28;20500;-76
2021/12/20 00:26:31;;;;;;;27.17;3.33;;;;;;;;;;5070236;28;20044;-77
2021/12/20 00:28:57;;;;;;;21.63;2.50;;;;;;;;;;5070871;28;20044;-77
2021/12/20 00:31:23;;;;;;;23.73;2.85;;;;;;;;;;5070351;28;20105;-77
2021/12/20 00:33:49;;;;;;;21.80;3.25;;;;;;;;;;5070435;28;20126;-77
2021/12/20 00:36:21;;;;;;;25.02;2.83;;;;;;;;;;5054355;28;20385;-77
2021/12/20 00:41:32;;;;;;;23.10;3.00;;;;;;;;;;5071337;28;20072;-76
2021/12/20 00:43:59;;;;;;;22.33;3.00;;;;;;;;;;5069976;28;20041;-76
2021/12/20 00:46:25;;;;;;;19.05;2.95;;;;;;;;;;5069902;28;20119;-76
2021/12/20 00:48:51;;;;;;;21.15;3.15;;;;;;;;;;5053337;28;20040;-77
2021/12/20 00:51:18;;;;;;;21.85;2.67;;;;;;;;;;5070171;28;20391;-76
2021/12/20 00:53:44;;;;;;;20.02;2.55;;;;;;;;;;5069199;28;20064;-77
2021/12/20 00:56:10;;;;;;;21.75;2.95;;;;;;;;;;5069660;28;20120;-77
2021/12/20 00:58:36;;;;;;;21.65;2.80;;;;;;;;;;5070044;28;20503;-77
2021/12/20 01:01:03;;;;;;;26.42;2.97;;;;;;;;;;5070297;28;20484;-77
2021/12/20 01:03:30;;;;;;;23.25;2.85;;;;;;;;;;5069674;28;20127;-76
2021/12/20 01:05:57;;;;;;;24.55;3.15;;;;;;;;;;5069722;28;20082;-77
2021/12/20 01:08:24;;;;;;;18.63;2.83;;;;;;;;;;5052897;28;20544;-77
2021/12/20 01:10:53;;;;;;;16.88;2.42;;;;;;;;;;5071545;28;20093;-76
2021/12/20 01:13:21;;;;;;;20.77;3.42;;;;;;;;;;5070100;28;20150;-77
2021/12/20 01:15:51;;;;;;;22.13;2.75;;;;;;;;;;5070075;28;20079;-76
2021/12/20 01:18:18;;;;;;;15.63;2.65;;;;;;;;;;5069568;28;20062;-77
2021/12/20 01:20:44;;;;;;;27.58;3.08;;;;;;;;;;5052788;28;20044;-77
2021/12/20 01:23:11;;;;;;;19.08;2.70;;;;;;;;;;5069179;28;20051;-82
2021/12/20 01:25:37;;;;;;;22.27;3.20;;;;;;;;;;5069771;28;20443;-83
2021/12/20 01:28:05;;;;;;;18.52;2.92;;;;;;;;;;5052656;28;20072;-83
2021/12/20 01:30:31;;;;;;;19.65;2.67;;;;;;;;;;5069212;28;20127;-83
2021/12/20 01:32:57;;;;;;;16.73;3.75;;;;;;;;;;5069744;28;20048;-83
2021/12/20 01:35:24;;;;;;;28.15;3.20;;;;;;;;;;5069600;28;20794;-83
2021/12/20 01:37:51;;;;;;;27.38;2.72;;;;;;;;;;5070543;28;20058;-83
2021/12/20 01:40:17;;;;;;;21.00;3.58;;;;;;;;;;5070205;28;20044;-82
2021/12/20 01:42:45;;;;;;;18.98;2.80;;;;;;;;;;5053054;28;20052;-77
2021/12/20 01:45:16;;;;;;;15.52;2.88;;;;;;;;;;5069285;28;20040;-77
2021/12/20 01:47:46;;;;;;;18.20;2.80;;;;;;;;;;5069627;28;20109;-82
2021/12/20 01:52:45;;;;;;;17.58;2.65;;;;;;;;;;5069016;28;20400;-82
2021/12/20 01:55:13;;;;;;;23.42;2.85;;;;;;;;;;5061218;28;20049;-82
2021/12/20 01:57:39;;;;;;;22.70;2.67;;;;;;;;;;5048953;28;20045;-82
2021/12/20 02:00:07;;;;;;;20.73;3.38;;;;;;;;;;5049198;28;20056;-82
2021/12/20 02:02:33;;;;;;;20.17;2.42;;;;;;;;;;5048935;28;20415;-82
2021/12/20 02:05:10;;;;;;;22.52;2.95;;;;;;;;;;5049135;28;20271;-82
2021/12/20 02:07:50;;;;;;;21.55;2.50;;;;;;;;;;5066344;28;20451;-82
2021/12/20 02:10:16;;;;;;;24.33;3.25;;;;;;;;;;5049322;28;20399;-82
2021/12/20 02:12:42;;;;;;;25.48;3.65;;;;;;;;;;5048775;28;20392;-82
2021/12/20 02:15:09;;;;;;;24.48;3.10;;;;;;;;;;5081876;28;20036;-82
2021/12/20 02:17:35;;;;;;;19.63;2.88;;;;;;;;;;5048239;28;20040;-82
2021/12/20 02:20:02;;;;;;;14.15;2.25;;;;;;;;;;5065912;28;20551;-82
2021/12/20 02:22:29;;;;;;;24.25;3.10;;;;;;;;;;5048207;28;20051;-82
2021/12/20 02:24:55;;;;;;;23.33;2.70;;;;;;;;;;5048672;28;20106;-82
2021/12/20 02:27:23;;;;;;;22.92;3.00;;;;;;;;;;5048768;28;20125;-82
2021/12/20 02:38:22;;;;;;;24.17;2.65;;;;;;;;;;5068649;28;20045;-76
2021/12/20 02:40:56;;;;;;;25.65;3.50;;;;;;;;;;5068662;28;20036;-76
2021/12/20 02:43:22;;;;;;;15.60;2.40;;;;;;;;;;5068645;28;20045;-77
2021/12/20 02:45:48;;;;;;;18.25;2.90;;;;;;;;;;5068785;28;20051;-76
2021/12/20 02:48:15;;;;;;;22.15;2.70;;;;;;;;;;5068318;28;20072;-77
2021/12/20 02:50:41;;;;;;;24.02;2.75;;;;;;;;;;5068587;28;20419;-76
2021/12/20 02:53:07;;;;;;;14.93;2.10;;;;;;;;;;5051380;28;20055;-76
2021/12/20 02:55:33;;;;;;;17.65;3.10;;;;;;;;;;5050796;28;20062;-76
2021/12/20 02:57:59;;;;;;;22.05;2.30;;;;;;;;;;5068346;28;20614;-76
2021/12/20 03:00:25;;;;;;;19.10;2.20;;;;;;;;;;5065029;28;20565;-76
2021/12/20 03:02:51;;;;;;;21.85;2.40;;;;;;;;;;5066111;28;20043;-76
2021/12/20 03:05:17;;;;;;;20.17;3.70;;;;;;;;;;5067087;28;20048;-77
2021/12/20 03:07:50;;;;;;;12.73;1.95;;;;;;;;;;5050603;28;20484;-77
2021/12/20 03:10:17;;;;;;;20.13;2.20;;;;;;;;;;5067595;28;20132;-77
2021/12/20 03:12:43;;;;;;;13.25;1.73;;;;;;;;;;5066990;28;20159;-76
2021/12/20 03:15:18;;;;;;;14.35;1.95;;;;;;;;;;5050736;28;20114;-77
2021/12/20 03:17:44;;;;;;;13.35;1.50;;;;;;;;;;5068918;28;20052;-76
2021/12/20 03:20:10;;;;;;;8.85;1.55;;;;;;;;;;5071228;28;20097;-76
2021/12/20 03:22:37;;;;;;;13.63;1.50;;;;;;;;;;5071193;28;20041;-76
2021/12/20 03:25:03;;;;;;;14.15;1.58;;;;;;;;;;5072450;28;20051;-76
2021/12/20 03:27:29;;;;;;;17.10;1.65;;;;;;;;;;5070962;28;20036;-76
2021/12/20 03:29:55;;;;;;;10.57;1.63;;;;;;;;;;5055028;28;20036;-76
2021/12/20 03:32:22;;;;;;;13.07;1.75;;;;;;;;;;5071538;28;20059;-76
2021/12/20 03:34:48;;;;;;;16.80;1.70;;;;;;;;;;5072658;28;20044;-82
2021/12/20 03:37:14;;;;;;;8.68;1.45;;;;;;;;;;5071713;28;20119;-82
2021/12/20 03:39:40;;;;;;;6.57;1.23;;;;;;;;;;5105216;28;20520;-82
2021/12/20 03:42:06;;;;;;;8.80;1.70;;;;;;;;;;5071682;28;20114;-82
2021/12/20 03:44:36;;;;;;;11.88;1.35;;;;;;;;;;5054435;28;20052;-76
2021/12/20 03:47:02;;;;;;;9.85;1.20;;;;;;;;;;5055222;28;20424;-76
2021/12/20 03:49:29;;;;;;;8.30;1.10;;;;;;;;;;5054128;28;20044;-83
2021/12/20 03:51:55;;;;;;;11.23;1.35;;;;;;;;;;5071477;28;20251;-82
2021/12/20 03:54:21;;;;;;;12.18;1.17;;;;;;;;;;5054420;28;20045;-76
2021/12/20 03:56:47;;;;;;;12.02;1.23;;;;;;;;;;5070623;28;20107;-82
2021/12/20 03:59:13;;;;;;;12.45;1.10;;;;;;;;;;5071038;28;20048;-77
2021/12/20 04:01:39;;;;;;;10.00;1.20;;;;;;;;;;5070557;28;20139;-76
2021/12/20 04:04:05;;;;;;;12.77;1.80;;;;;;;;;;5071020;28;20045;-77
2021/12/20 04:06:34;;;;;;;9.30;1.48;;;;;;;;;;5070655;28;20372;-76
2021/12/20 04:09:00;;;;;;;10.98;1.75;;;;;;;;;;5071244;28;20049;-77
2021/12/20 04:11:26;;;;;;;11.85;1.40;;;;;;;;;;5054149;28;20400;-77
2021/12/20 04:13:52;;;;;;;9.30;1.30;;;;;;;;;;5070607;28;20119;-77
2021/12/20 04:16:18;;;;;;;16.00;1.35;;;;;;;;;;5070313;28;20036;-77
2021/12/20 04:18:45;;;;;;;10.23;1.40;;;;;;;;;;5053823;28;20043;-77
2021/12/20 04:21:11;;;;;;;12.23;1.10;;;;;;;;;;5070644;28;20040;-82
2021/12/20 04:23:37;;;;;;;11.73;1.38;;;;;;;;;;5054082;28;20520;-77
2021/12/20 04:26:03;;;;;;;9.57;1.13;;;;;;;;;;5072075;28;20407;-82
2021/12/20 04:28:29;;;;;;;10.27;1.45;;;;;;;;;;5070606;28;20044;-82
2021/12/20 04:30:56;;;;;;;13.48;1.65;;;;;;;;;;5053719;28;20044;-82
2021/12/20 04:33:22;;;;;;;10.60;1.90;;;;;;;;;;5054294;28;20049;-82
2021/12/20 04:35:48;;;;;;;6.72;1.20;;;;;;;;;;5071116;28;20140;-77
2021/12/20 04:38:15;;;;;;;11.15;1.40;;;;;;;;;;5070512;28;20050;-77
2021/12/20 04:40:41;;;;;;;10.93;1.88;;;;;;;;;;5069808;28;20094;-77
2021/12/20 04:43:07;;;;;;;10.98;1.40;;;;;;;;;;5071520;28;20428;-77
2021/12/20 04:45:34;;;;;;;8.50;1.27;;;;;;;;;;5070329;28;20049;-77
2021/12/20 04:48:00;;;;;;;8.82;1.33;;;;;;;;;;5071016;28;20056;-77
2021/12/20 04:50:28;;;;;;;12.07;1.38;;;;;;;;;;5070479;28;20052;-76
2021/12/20 04:52:55;;;;;;;9.27;1.33;;;;;;;;;;5070566;28;20048;-76
2021/12/20 04:55:21;;;;;;;15.30;1.60;;;;;;;;;;5069843;28;20060;-76
2021/12/20 04:57:48;;;;;;;11.98;1.23;;;;;;;;;;5070316;28;20074;-76
2021/12/20 05:00:16;;;;;;;10.95;1.42;;;;;;;;;;5070459;28;20036;-76
2021/12/20 05:02:42;;;;;;;13.98;2.15;;;;;;;;;;5068521;28;20032;-82
2021/12/20 05:05:09;;;;;;;11.13;1.17;;;;;;;;;;5069879;28;20048;-82
2021/12/20 05:07:37;;;;;;;9.45;1.73;;;;;;;;;;5069617;28;20127;-76
2021/12/20 05:10:03;;;;;;;7.80;1.50;;;;;;;;;;5070438;28;20045;-77
2021/12/20 05:12:29;;;;;;;10.93;1.30;;;;;;;;;;5069876;28;20045;-82
2021/12/20 05:14:56;;;;;;;10.85;1.27;;;;;;;;;;5070131;28;20575;-82
2021/12/20 05:17:22;;;;;;;9.68;1.55;;;;;;;;;;5069710;28;20066;-82
2021/12/20 05:19:48;;;;;;;13.93;1.30;;;;;;;;;;5069579;28;20049;-82
2021/12/20 05:22:14;;;;;;;10.48;1.23;;;;;;;;;;5069493;28;20051;-82
2021/12/20 05:24:40;;;;;;;10.20;1.48;;;;;;;;;;5069049;28;20127;-81
2021/12/20 05:27:06;;;;;;;13.32;1.40;;;;;;;;;;5069713;28;20081;-82
2021/12/20 05:29:33;;;;;;;9.00;1.35;;;;;;;;;;5069792;28;20439;-82
2021/12/20 05:32:02;;;;;;;12.00;1.80;;;;;;;;;;5069740;28;20059;-82
2021/12/20 05:34:28;;;;;;;10.27;1.52;;;;;;;;;;5069674;28;20407;-82
2021/12/20 05:36:54;;;;;;;11.57;1.73;;;;;;;;;;5070038;28;20040;-82
2021/12/20 05:39:20;;;;;;;10.35;1.17;;;;;;;;;;5054192;28;20046;-81
2021/12/20 05:41:46;;;;;;;14.25;1.65;;;;;;;;;;5070961;28;20126;-77
2021/12/20 05:44:13;;;;;;;10.38;1.33;;;;;;;;;;5069804;28;20064;-77
2021/12/20 05:46:39;;;;;;;8.27;1.35;;;;;;;;;;5068849;28;20078;-77
2021/12/20 05:49:05;;;;;;;8.65;1.20;;;;;;;;;;5070115;28;20072;-82
2021/12/20 05:51:31;;;;;;;10.57;1.30;;;;;;;;;;5069298;28;20489;-82
2021/12/20 05:53:57;;;;;;;8.82;1.17;;;;;;;;;;5052578;28;20048;-82
2021/12/20 05:56:23;;;;;;;13.88;2.00;;;;;;;;;;5070642;28;20110;-82
2021/12/20 05:58:49;;;;;;;10.25;1.60;;;;;;;;;;5053022;28;20488;-81
2021/12/20 06:01:15;;;;;;;8.20;1.30;;;;;;;;;;5068960;28;20128;-77
2021/12/20 06:03:41;;;;;;;8.85;1.25;;;;;;;;;;5068735;28;20543;-82
2021/12/20 06:06:08;;;;;;;8.23;1.27;;;;;;;;;;5068940;28;20049;-81
2021/12/20 06:08:34;;;;;;;10.40;1.50;;;;;;;;;;5051998;28;20044;-82
2021/12/20 06:11:00;;;;;;;13.60;1.73;;;;;;;;;;5069228;28;20123;-82
2021/12/20 06:13:26;;;;;;;6.28;1.38;;;;;;;;;;5068984;28;20045;-82
2021/12/20 06:15:52;;;;;;;7.65;1.17;;;;;;;;;;5069184;28;20492;-82
2021/12/20 06:18:19;;;;;;;13.82;1.80;;;;;;;;;;5069366;28;20385;-82
2021/12/20 06:20:45;;;;;;;8.60;1.30;;;;;;;;;;5068909;28;20067;-82
2021/12/20 06:23:11;;;;;;;9.82;2.45;;;;;;;;;;5069220;28;20055;-81
2021/12/20 06:25:38;;;;;;;10.07;1.70;;;;;;;;;;5052770;28;20052;-82
2021/12/20 06:28:04;;;;;;;10.43;1.42;;;;;;;;;;5068492;28;20048;-76
2021/12/20 06:30:30;;;;;;;8.40;1.20;;;;;;;;;;5052017;28;20098;-76
2021/12/20 06:32:56;;;;;;;11.15;1.52;;;;;;;;;;5051954;28;20049;-82
2021/12/20 06:35:22;;;;;;;11.32;1.20;;;;;;;;;;5052458;28;20492;-82
2021/12/20 06:37:58;;;;;;;8.32;1.33;;;;;;;;;;5067731;28;20113;-77
2021/12/20 06:40:25;;;;;;;8.98;1.30;;;;;;;;;;5068978;28;20106;-76
2021/12/20 06:42:51;;;;;;;8.75;1.40;;;;;;;;;;5068614;28;20515;-76
2021/12/20 06:45:17;;;;;;;12.18;1.90;;;;;;;;;;5070360;28;20044;-81
2021/12/20 06:47:43;;;;;;;6.47;1.23;;;;;;;;;;5068746;28;20072;-82
2021/12/20 06:50:09;;;;;;;8.02;1.50;;;;;;;;;;5069113;28;20037;-81
2021/12/20 06:52:35;;;;;;;11.98;2.00;;;;;;;;;;5068301;28;20041;-82
2021/12/20 06:55:01;;;;;;;9.38;1.83;;;;;;;;;;5055105;28;20102;-82
2021/12/20 06:57:28;;;;;;;13.73;3.83;;;;;;;;;;5072732;28;20048;-82
2021/12/20 06:59:54;;;;;;;10.27;2.22;;;;;;;;;;5072890;28;20107;-82
2021/12/20 07:02:20;;;;;;;7.95;1.63;;;;;;;;;;5055807;28;20071;-76
2021/12/20 07:04:46;;;;;;;10.15;1.90;;;;;;;;;;5055281;28;20055;-82
2021/12/20 07:07:12;;;;;;;10.23;1.52;;;;;;;;;;5072296;28;20080;-81
2021/12/20 07:09:38;;;;;;;6.72;1.38;;;;;;;;;;5055469;28;20093;-82
2021/12/20 07:12:04;;;;;;;9.50;1.88;;;;;;;;;;5055828;28;20040;-76
2021/12/20 07:14:30;;;;;;;9.93;1.83;;;;;;;;;;5072899;28;20123;-77
2021/12/20 07:16:57;;;;;;;9.60;1.90;;;;;;;;;;5071873;28;20040;-77
2021/12/20 07:19:23;;;;;;;7.20;1.70;;;;;;;;;;5071745;28;20259;-77
2021/12/20 07:21:49;;;;;;;11.77;1.70;;;;;;;;;;5055286;28;20040;-77
2021/12/20 07:24:15;;;;;;;7.22;1.98;;;;;;;;;;5072158;28;20090;-76
2021/12/20 07:26:42;;;;;;;8.40;1.60;;;;;;;;;;5072272;28;20454;-77
2021/12/20 07:29:08;;;;;;;9.40;2.15;;;;;;;;;;5071759;28;20049;-77
2021/12/20 07:31:34;;;;;;;10.02;2.20;;;;;;;;;;5071688;28;20477;-77
2021/12/20 07:34:00;;;;;;;10.50;1.92;;;;;;;;;;5071861;28;20174;-77
2021/12/20 07:36:27;;;;;;;17.15;2.00;;;;;;;;;;5071888;28;20090;-77
2021/12/20 07:38:53;;;;;;;9.45;1.50;;;;;;;;;;5071511;28;20102;-77
2021/12/20 07:41:20;;;;;;;12.77;1.58;;;;;;;;;;5054846;28;20046;-77
2021/12/20 07:43:46;;;;;;;9.93;1.95;;;;;;;;;;5071215;28;20047;-77
2021/12/20 07:46:12;;;;;;;9.88;1.52;;;;;;;;;;5072094;28;20083;-77
2021/12/20 07:48:39;;;;;;;10.57;2.03;;;;;;;;;;5071116;28;20452;-77
2021/12/20 07:51:05;;;;;;;13.13;1.83;;;;;;;;;;5055603;28;20381;-77
2021/12/20 07:53:31;;;;;;;7.90;1.65;;;;;;;;;;5070991;28;20041;-77
2021/12/20 07:55:58;;;;;;;7.60;1.35;;;;;;;;;;5071672;28;20095;-77
2021/12/20 07:58:24;;;;;;;8.30;1.60;;;;;;;;;;5071552;28;20044;-76
2021/12/20 08:00:50;;;;;;;11.95;1.88;;;;;;;;;;5071057;28;20102;-77
2021/12/20 08:03:17;;;;;;;18.80;1.85;;;;;;;;;;5071208;28;20047;-77
2021/12/20 08:05:43;;;;;;;11.55;4.13;;;;;;;;;;5069792;28;20086;-77
2021/12/20 08:08:09;;;;;;;13.68;5.75;;;;;;;;;;5071065;28;20048;-82
2021/12/20 08:10:36;;;;;;;18.02;7.03;;;;;;;;;;5071110;28;20044;-81
2021/12/20 08:13:02;;;;;;;11.50;3.53;;;;;;;;;;5071772;28;20044;-81
2021/12/20 08:15:28;;;;;;;10.40;3.47;;;;;;;;;;5054747;28;20036;-82
2021/12/20 08:17:55;;;;;;;13.15;2.80;;;;;;;;;;5071435;28;20516;-82
2021/12/20 08:20:22;;;;;;;10.30;2.55;;;;;;;;;;5054138;28;20036;-82
2021/12/20 08:22:49;;;;;;;10.68;1.70;;;;;;;;;;5071278;28;20125;-82
2021/12/20 08:25:16;;;;;;;10.50;1.70;;;;;;;;;;5070994;28;20044;-81
2021/12/20 08:27:42;;;;;;;6.22;1.45;;;;;;;;;;5071010;28;20131;-82
2021/12/20 08:30:09;;;;;;;10.35;1.30;;;;;;;;;;5070382;28;20036;-82
2021/12/20 08:32:36;;;;;;;5.90;1.40;;;;;;;;;;5070401;28;20036;-82
2021/12/20 08:35:03;;;;;;;10.10;1.50;;;;;;;;;;5070363;28;20121;-82
2021/12/20 08:37:29;;;;;;;6.65;1.23;;;;;;;;;;5070686;28;20051;-82
2021/12/20 08:39:55;;;;;;;9.45;1.55;;;;;;;;;;5054052;28;20043;-82
2021/12/20 08:42:21;;;;;;;10.63;1.55;;;;;;;;;;5071032;28;20123;-82
2021/12/20 08:44:48;;;;;;;7.72;1.55;;;;;;;;;;5053662;28;20090;-76
2021/12/20 08:47:14;;;;;;;7.97;1.40;;;;;;;;;;5054233;28;20052;-77
2021/12/20 08:49:40;;;;;;;10.65;1.65;;;;;;;;;;5070444;28;20055;-77
2021/12/20 08:52:07;;;;;;;10.82;1.52;;;;;;;;;;5070009;28;20044;-77
2021/12/20 08:54:33;;;;;;;5.63;1.60;;;;;;;;;;5070036;28;20516;-82
2021/12/20 08:56:59;;;;;;;10.23;1.60;;;;;;;;;;5071558;28;20510;-77
2021/12/20 08:59:25;;;;;;;8.05;1.63;;;;;;;;;;5069729;28;20355;-77
2021/12/20 09:01:52;;;;;;;13.32;2.25;;;;;;;;;;5069773;28;20047;-77
2021/12/20 09:04:18;;;;;;;7.15;1.48;;;;;;;;;;5070654;28;20131;-77
2021/12/20 09:06:45;;;;;;;10.25;1.90;;;;;;;;;;5069310;28;20044;-77
2021/12/20 09:09:13;;;;;;;10.50;1.65;;;;;;;;;;5069851;28;20052;-77
2021/12/20 09:11:40;;;;;;;14.07;2.03;;;;;;;;;;5069800;28;20459;-77
2021/12/20 09:14:06;;;;;;;9.82;2.22;;;;;;;;;;5069735;28;20124;-82
2021/12/20 09:16:32;;;;;;;9.32;1.52;;;;;;;;;;5069036;28;20041;-83
2021/12/20 09:18:58;;;;;;;8.15;2.22;;;;;;;;;;5070097;28;20500;-82
2021/12/20 09:21:24;;;;;;;5.30;1.38;;;;;;;;;;5071059;28;20040;-83
2021/12/20 09:23:51;;;;;;;9.32;1.67;;;;;;;;;;5053254;28;20044;-83
2021/12/20 09:26:17;;;;;;;7.13;1.58;;;;;;;;;;5070166;28;20049;-83
2021/12/20 09:28:43;;;;;;;8.00;1.55;;;;;;;;;;5069427;28;20392;-78
2021/12/20 09:31:09;;;;;;;9.00;1.95;;;;;;;;;;5069290;28;20041;-82
2021/12/20 09:33:36;;;;;;;7.13;1.48;;;;;;;;;;5052516;28;20123;-82
2021/12/20 09:36:02;;;;;;;6.90;1.48;;;;;;;;;;5069325;28;20040;-78
2021/12/20 09:38:31;;;;;;;10.02;1.90;;;;;;;;;;5069158;28;20063;-78
2021/12/20 09:43:33;;;;;;;;;;;;;;;;;;5069845;28;20439;-78
2021/12/20 09:45:59;;;;;;;10.43;2.42;;;;;;;;;;5069119;28;20015;-78
2021/12/20 09:48:25;;;;;;;7.43;1.48;;;;;;;;;;5069121;28;20404;-77
2021/12/20 09:50:51;;;;;;;8.50;1.52;;;;;;;;;;5070531;28;20055;-83
2021/12/20 09:53:17;;;;;;;9.38;1.60;;;;;;;;;;5069303;28;20059;-83
2021/12/20 09:55:48;;;;;;;12.98;2.15;;;;;;;;;;5068632;28;20048;-83
2021/12/20 09:58:15;;;;;;;9.93;1.77;;;;;;;;;;5068892;28;20048;-83
2021/12/20 10:00:41;;;;;;;9.88;2.03;;;;;;;;;;5051907;28;20036;-82
2021/12/20 10:03:08;;;;;;;8.43;1.75;;;;;;;;;;5069282;28;20496;-82
2021/12/20 10:05:34;;;;;;;10.48;2.50;;;;;;;;;;5068720;28;20044;-83
2021/12/20 10:08:09;;;;;;;7.75;2.00;;;;;;;;;;5069001;28;20377;-78
2021/12/20 10:10:46;;;;;;;11.98;1.98;;;;;;;;;;5068428;28;20048;-78
2021/12/20 10:13:33;;;;;;;11.27;2.00;;;;;;;;;;5068152;28;20195;-78
2021/12/20 10:16:00;;;;;;;12.60;2.05;;;;;;;;;;5068491;28;20501;-79
2021/12/20 10:18:27;;;;;;;12.30;2.05;;;;;;;;;;5068789;28;20373;-79
2021/12/20 10:20:58;;;;;;;10.00;1.85;;;;;;;;;;5052077;28;20055;-79
2021/12/20 10:23:25;;;;;;;11.07;1.70;;;;;;;;;;5068741;28;20055;-79
2021/12/20 10:25:53;;;;;;;12.77;1.92;;;;;;;;;;5068630;28;20090;-79
2021/12/20 10:28:22;;;;;;;11.02;2.17;;;;;;;;;;5069116;28;20087;-79
2021/12/20 10:30:52;;;;;;;7.65;2.08;;;;;;;;;;5069684;28;20040;-79
2021/12/20 10:33:20;;;;;;;12.02;2.10;;;;;;;;;;5051931;28;20123;-79
2021/12/20 10:35:53;;;;;;;13.05;2.60;;;;;;;;;;5069747;28;20040;-79
2021/12/20 10:38:21;;;;;;;11.07;2.22;;;;;;;;;;5052226;28;20478;-82
2021/12/20 10:40:54;;;;;;;11.93;2.42;;;;;;;;;;5051320;28;20041;-83
2021/12/20 10:43:22;;;;;;;12.55;2.60;;;;;;;;;;5068414;28;20442;-82
2021/12/20 10:45:51;;;;;;;12.80;2.35;;;;;;;;;;5069538;28;20044;-79
2021/12/20 10:48:17;;;;;;;13.73;2.30;;;;;;;;;;5051558;28;20083;-79
2021/12/20 10:50:43;;;;;;;13.77;2.50;;;;;;;;;;5069651;28;20473;-79
2021/12/20 10:53:18;;;;;;;12.75;2.53;;;;;;;;;;5068685;28;20550;-79
2021/12/20 10:55:47;;;;;;;11.45;2.53;;;;;;;;;;5067685;28;20083;-79
2021/12/20 10:58:23;;;;;;;16.02;2.53;;;;;;;;;;5068033;28;20044;-82
2021/12/20 11:00:49;;;;;;;;;;;;;;;;;;5068745;28;20403;-79
2021/12/20 11:03:27;;;;;;;14.07;2.83;;;;;;;;;;5069514;28;19999;-79
2021/12/20 11:06:38;;;;;;;19.20;3.10;;;;;;;;;;5051599;28;20074;-79
2021/12/20 11:09:05;;;;;;;14.35;2.80;;;;;;;;;;5065568;28;20182;-79
2021/12/20 11:11:32;;;;;;;14.37;2.70;;;;;;;;;;5069302;28;20044;-78
2021/12/20 11:13:59;;;;;;;16.13;2.47;;;;;;;;;;5068182;28;20321;-82
2021/12/20 11:16:31;;;;;;;14.18;2.65;;;;;;;;;;5068231;28;20036;-82
2021/12/20 11:19:14;;;;;;;18.58;3.30;;;;;;;;;;5051684;28;20075;-82
2021/12/20 11:21:59;;;;;;;15.70;2.88;;;;;;;;;;5067917;28;20409;-82
2021/12/20 11:24:25;;;;;;;13.65;2.95;;;;;;;;;;5069416;28;20049;-82
2021/12/20 11:26:52;;;;;;;20.63;3.15;;;;;;;;;;5050806;28;20071;-82
2021/12/20 11:29:19;;;;;;;17.15;2.78;;;;;;;;;;5051699;28;20060;-82
2021/12/20 11:31:46;;;;;;;18.42;2.83;;;;;;;;;;5067442;28;20166;-83
2021/12/20 11:34:12;;;;;;;17.98;3.47;;;;;;;;;;5051256;28;20063;-82
2021/12/20 11:36:40;;;;;;;15.48;2.95;;;;;;;;;;5069193;28;20041;-82
2021/12/20 11:39:07;;;;;;;15.20;2.67;;;;;;;;;;5068335;28;20040;-82
2021/12/20 11:41:33;;;;;;;17.10;3.08;;;;;;;;;;5054732;28;20080;-81
2021/12/20 11:44:00;;;;;;;16.48;2.72;;;;;;;;;;5071333;28;20138;-78
2021/12/20 11:46:30;;;;;;;22.02;2.85;;;;;;;;;;5071127;28;20070;-78
2021/12/20 11:48:57;;;;;;;27.75;4.18;;;;;;;;;;5071423;28;20075;-78
2021/12/20 11:51:23;;;;;;;21.55;3.35;;;;;;;;;;5071733;28;20127;-78
2021/12/20 11:53:50;;;;;;;19.95;3.42;;;;;;;;;;5054416;28;20053;-82
2021/12/20 11:56:16;;;;;;;20.98;3.42;;;;;;;;;;5054795;28;20615;-81
2021/12/20 11:58:47;;;;;;;24.23;4.07;;;;;;;;;;5054484;28;20399;-81
2021/12/20 12:01:19;;;;;;;24.55;3.33;;;;;;;;;;5071535;28;20091;-82
2021/12/20 12:03:56;;;;;;;22.85;3.30;;;;;;;;;;5070868;28;20040;-82
2021/12/20 12:06:26;;;;;;;20.17;3.17;;;;;;;;;;5071367;28;20055;-82
2021/12/20 12:08:54;;;;;;;19.60;3.63;;;;;;;;;;5072172;28;20091;-81
2021/12/20 12:11:23;;;;;;;28.00;3.20;;;;;;;;;;5071141;28;20084;-81
2021/12/20 12:14:01;;;;;;;28.42;3.22;;;;;;;;;;5071126;28;20403;-82
2021/12/20 12:16:47;;;;;;;24.05;3.08;;;;;;;;;;5054622;28;20117;-82
2021/12/20 12:19:33;;;;;;;18.90;3.00;;;;;;;;;;5071032;28;20554;-78
2021/12/20 12:22:00;;;;;;;15.32;2.60;;;;;;;;;;5072090;28;20530;-77
2021/12/20 12:24:46;;;;;;;22.83;3.83;;;;;;;;;;5070809;28;20392;-77
2021/12/20 12:27:19;;;;;;;21.48;2.67;;;;;;;;;;5072127;28;20106;-77
2021/12/20 12:29:45;;;;;;;20.08;2.67;;;;;;;;;;5070130;28;20036;-78
2021/12/20 12:32:11;;;;;;;21.38;2.92;;;;;;;;;;5053501;28;20059;-77
2021/12/20 12:34:39;;;;;;;20.60;3.65;;;;;;;;;;5053281;28;20044;-78
2021/12/20 12:37:29;;;;;;;17.95;2.72;;;;;;;;;;5053752;28;20044;-77
2021/12/20 12:40:13;;;;;;;21.23;3.08;;;;;;;;;;5053572;28;20484;-77
2021/12/20 12:42:48;;;;;;;15.48;2.95;;;;;;;;;;5069981;28;20044;-77
2021/12/20 12:45:16;;;;;;;23.83;2.97;;;;;;;;;;5054062;28;20036;-81
2021/12/20 12:47:42;;;;;;;21.95;2.88;;;;;;;;;;5071441;28;20045;-77
2021/12/20 12:50:24;;;;;;;17.90;2.50;;;;;;;;;;5053618;28;20040;-78
2021/12/20 12:52:50;;;;;;;20.60;2.70;;;;;;;;;;5069315;28;20049;-77
2021/12/20 12:55:25;;;;;;;20.95;2.55;;;;;;;;;;5053222;28;20048;-78
2021/12/20 12:57:52;;;;;;;16.08;2.63;;;;;;;;;;5070219;28;20044;-78
2021/12/20 13:00:23;;;;;;;21.10;2.85;;;;;;;;;;5071587;28;20033;-77
2021/12/20 13:02:51;;;;;;;17.17;2.72;;;;;;;;;;5069904;28;20058;-77
2021/12/20 13:05:22;;;;;;;19.88;2.28;;;;;;;;;;5071091;28;20052;-81
2021/12/20 13:07:58;;;;;;;17.98;2.58;;;;;;;;;;5069814;28;20055;-81
2021/12/20 13:10:38;;;;;;;15.80;2.25;;;;;;;;;;5069725;28;20094;-82
2021/12/20 13:13:29;;;;;;;14.20;2.65;;;;;;;;;;5053414;28;20570;-81
2021/12/20 13:16:01;;;;;;;14.93;2.15;;;;;;;;;;5053067;28;20040;-82
2021/12/20 13:21:01;;;;;;;12.80;2.25;;;;;;;;;;5069617;28;20052;-81
2021/12/20 13:23:29;;;;;;;19.73;2.80;;;;;;;;;;5069507;28;20116;-81
2021/12/20 13:25:56;;;;;;;13.43;2.22;;;;;;;;;;5069583;28;20048;-81
2021/12/20 13:28:22;;;;;;;12.93;1.90;;;;;;;;;;5069729;28;20048;-82
2021/12/20 13:30:50;;;;;;;12.50;2.25;;;;;;;;;;5068871;28;20101;-81
2021/12/20 13:33:17;;;;;;;10.45;1.70;;;;;;;;;;5069655;28;20054;-81
2021/12/20 13:35:44;;;;;;;16.63;2.03;;;;;;;;;;5069075;28;20044;-78
2021/12/20 13:38:12;;;;;;;13.05;1.70;;;;;;;;;;5069807;28;20051;-78
2021/12/20 13:40:52;;;;;;;12.68;1.80;;;;;;;;;;5069137;28;20446;-78
2021/12/20 13:43:25;;;;;;;10.90;2.00;;;;;;;;;;5069203;28;20101;-78
2021/12/20 13:46:10;;;;;;;13.35;2.33;;;;;;;;;;5070233;28;20408;-82
2021/12/20 13:48:36;;;;;;;9.30;1.40;;;;;;;;;;5069225;28;20040;-78
2021/12/20 13:51:02;;;;;;;7.60;1.50;;;;;;;;;;5069220;28;20044;-78
2021/12/20 13:53:32;;;;;;;6.25;1.25;;;;;;;;;;5052324;28;20124;-78
2021/12/20 13:55:59;;;;;;;9.27;1.50;;;;;;;;;;5068882;28;20052;-78
2021/12/20 13:58:26;;;;;;;7.03;1.35;;;;;;;;;;5069507;28;20546;-78
2021/12/20 14:00:53;;;;;;;10.23;1.40;;;;;;;;;;5068811;28;20080;-78
2021/12/20 14:03:20;;;;;;;7.63;1.70;;;;;;;;;;5069069;28;20118;-82
2021/12/20 14:05:47;;;;;;;8.98;1.48;;;;;;;;;;5052017;28;20395;-82
2021/12/20 14:08:17;;;;;;;9.70;1.27;;;;;;;;;;5068861;28;20047;-78
2021/12/20 14:10:44;;;;;;;6.00;1.10;;;;;;;;;;5068413;28;20119;-79
2021/12/20 14:13:15;;;;;;;8.10;1.30;;;;;;;;;;5068843;28;20044;-79
2021/12/20 14:15:44;;;;;;;9.43;1.55;;;;;;;;;;5051833;28;20051;-79
2021/12/20 14:18:11;;;;;;;7.22;1.30;;;;;;;;;;5052188;28;20392;-79
2021/12/20 14:20:42;;;;;;;4.80;1.38;;;;;;;;;;5068352;28;20403;-79
2021/12/20 14:23:17;;;;;;;6.40;1.10;;;;;;;;;;5069549;28;20048;-79
2021/12/20 14:25:48;;;;;;;8.00;1.20;;;;;;;;;;5069900;28;20487;-78
2021/12/20 14:28:18;;;;;;;8.25;1.20;;;;;;;;;;5069024;28;20343;-79
2021/12/20 14:30:51;;;;;;;6.60;1.20;;;;;;;;;;5068589;28;20067;-79
2021/12/20 14:33:32;;;;;;;8.82;1.50;;;;;;;;;;5069127;28;20120;-82
2021/12/20 14:35:58;;;;;;;4.57;1.00;;;;;;;;;;5052511;28;20055;-82
2021/12/20 14:38:27;;;;;;;7.95;1.27;;;;;;;;;;5068757;28;20079;-82
2021/12/20 14:40:53;;;;;;;7.85;1.08;;;;;;;;;;5068837;28;20037;-82
2021/12/20 14:43:21;;;;;;;7.22;1.55;;;;;;;;;;5069918;28;20051;-78
2021/12/20 14:45:52;;;;;;;10.57;2.63;;;;;;;;;;5069179;28;20048;-82
2021/12/20 14:48:27;;;;;;;22.23;9.63;;;;;;;;;;5052375;28;20495;-82
2021/12/20 14:50:55;;;;;;;19.47;7.53;;;;;;;;;;5068107;28;20048;-82
2021/12/20 14:53:24;;;;;;;11.43;5.82;;;;;;;;;;5068351;28;20432;-82
2021/12/20 14:55:50;;;;;;;12.82;7.55;;;;;;;;;;5051370;28;20056;-82
2021/12/20 14:58:16;;;;;;;10.57;3.33;;;;;;;;;;5068390;28;20079;-82